Spencer, South Dakota
Current Conditions -  °F | °C
As of 4:35 PM on Monday 24 Nov 2014 (Local Time) from KMDS Reporting Station
Clear Clear  
Wind Chill: -14°   Ceiling: Unl
Heat Index: -5°   Visibility: 10mi
Dew Point: -10°   Wind: 24mph
Humidity: 68%   Direction: 330°NNW
Pressure: 29.86"   Gusts: 32mph
Location:  43.73°N, 97.59°W
Report Text: KMDS 242235Z AUTO 33021G28KT 10SM CLR M05/M10 A2986 RMK AO2
Loading
Personal Weather Stations






























Interactive Weather Map New forecast layout! Learn more

10-Day Weather Forecast

Advertisements
Track Severe Weather on mobile